createdAt,value
2023-05-09T00:01:13.248Z,91801.09
2023-05-09T00:03:40.159Z,91798.63
2023-05-09T00:06:07.373Z,91800.78
2023-05-09T00:08:34.085Z,91808.09
2023-05-09T00:11:01.795Z,91802.31
2023-05-09T00:13:28.561Z,91806.53
2023-05-09T00:15:55.202Z,91800.47
2023-05-09T00:18:22.274Z,91794.44
2023-05-09T00:20:49.619Z,91804.66
2023-05-09T00:23:16.772Z,91807.16
2023-05-09T00:25:43.584Z,91796.94
2023-05-09T00:28:10.251Z,91796.28
2023-05-09T00:30:36.877Z,91792.72
2023-05-09T00:33:03.512Z,91798.31
2023-05-09T00:35:32.278Z,91792.09
2023-05-09T00:37:59.485Z,91794.81
2023-05-09T00:40:26.168Z,91805.09
2023-05-09T00:42:52.885Z,91800.47
2023-05-09T00:45:19.631Z,91808.97
2023-05-09T00:47:46.471Z,91796.44
2023-05-09T00:50:13.719Z,91791.78
2023-05-09T00:52:40.428Z,91789.47
2023-05-09T00:55:08.487Z,91796.91
2023-05-09T00:57:35.418Z,91798.28
2023-05-09T01:00:04.422Z,91796.91
2023-05-09T01:02:31.704Z,91794.75
2023-05-09T01:04:58.621Z,91789.16
2023-05-09T01:07:52.430Z,91792.13
2023-05-09T01:10:34.989Z,91801.25
2023-05-09T01:13:27.955Z,91792.25
2023-05-09T01:15:59.918Z,91792.13
2023-05-09T01:18:57.394Z,91788.03
2023-05-09T01:21:26.926Z,91788.19
2023-05-09T01:24:01.812Z,91790.53
2023-05-09T01:27:06.059Z,91793.78
2023-05-09T01:29:47.060Z,91792.41
2023-05-09T01:32:19.178Z,91796.28
2023-05-09T01:34:45.964Z,91788.03
2023-05-09T01:37:14.490Z,91792.69
2023-05-09T01:39:42.058Z,91789.94
2023-05-09T01:42:09.855Z,91792.06
2023-05-09T01:44:38.496Z,91786.78
2023-05-09T01:47:07.260Z,91792.25
2023-05-09T01:49:35.397Z,91792.38
2023-05-09T01:52:04.902Z,91806.50
2023-05-09T01:54:31.490Z,91798.59
2023-05-09T01:56:58.366Z,91799.06
2023-05-09T01:59:25.262Z,91801.69
2023-05-09T02:01:52.989Z,91793.94
2023-05-09T02:04:19.601Z,91799.50
2023-05-09T02:06:46.361Z,91795.78
2023-05-09T02:09:13.130Z,91809.09
2023-05-09T02:11:39.815Z,91802.00
2023-05-09T02:14:06.513Z,91808.19
2023-05-09T02:16:33.788Z,91803.81
2023-05-09T02:19:00.536Z,91801.81
2023-05-09T02:21:29.031Z,91805.84
2023-05-09T02:23:55.910Z,91810.91
2023-05-09T02:26:22.722Z,91806.06
2023-05-09T02:28:49.691Z,91812.75
2023-05-09T02:31:16.350Z,91811.34
2023-05-09T02:33:43.077Z,91802.78
2023-05-09T02:36:09.912Z,91816.56
2023-05-09T02:38:36.620Z,91805.91
2023-05-09T02:41:03.201Z,91811.00
2023-05-09T02:43:29.869Z,91807.91
2023-05-09T02:45:56.621Z,91810.66
2023-05-09T02:48:23.380Z,91810.66
2023-05-09T02:50:50.080Z,91808.69
2023-05-09T02:53:16.758Z,91806.59
2023-05-09T02:55:43.530Z,91809.63
2023-05-09T02:58:14.536Z,91808.47
2023-05-09T03:00:41.599Z,91804.53
2023-05-09T03:03:08.916Z,91807.34
2023-05-09T03:05:35.774Z,91812.63
2023-05-09T03:08:02.460Z,91809.84
2023-05-09T03:10:29.051Z,91814.28
2023-05-09T03:12:55.912Z,91820.72
2023-05-09T03:15:22.596Z,91817.94
2023-05-09T03:17:49.444Z,91824.03
2023-05-09T03:20:16.195Z,91822.91
2023-05-09T03:22:42.937Z,91823.53
2023-05-09T03:25:10.240Z,91837.94
2023-05-09T03:27:36.910Z,91838.84
2023-05-09T03:30:03.859Z,91840.41
2023-05-09T03:32:30.607Z,91845.66
2023-05-09T03:34:57.486Z,91846.34
2023-05-09T03:37:26.205Z,91847.13
2023-05-09T03:39:53.922Z,91842.47
2023-05-09T03:42:20.682Z,91848.69
2023-05-09T03:44:47.578Z,91843.97
2023-05-09T03:47:14.205Z,91848.59
2023-05-09T03:49:41.658Z,91851.19
2023-05-09T03:52:08.287Z,91846.63
2023-05-09T03:54:34.914Z,91847.56
2023-05-09T03:57:01.657Z,91846.47
2023-05-09T03:59:28.340Z,91849.28
2023-05-09T04:01:55.081Z,91848.94
2023-05-09T04:04:21.750Z,91850.22
2023-05-09T04:06:48.467Z,91848.25
2023-05-09T04:09:15.459Z,91844.56
2023-05-09T04:11:42.136Z,91849.03
2023-05-09T04:14:08.720Z,91851.81
2023-05-09T04:16:35.387Z,91861.97
2023-05-09T04:19:02.675Z,91855.88
2023-05-09T04:21:29.385Z,91856.94
2023-05-09T04:23:56.052Z,91860.41
2023-05-09T04:26:22.929Z,91857.28
2023-05-09T04:28:49.589Z,91858.78
2023-05-09T04:31:16.633Z,91850.69
2023-05-09T04:33:43.424Z,91865.19
2023-05-09T04:36:10.036Z,91866.88
2023-05-09T04:38:36.734Z,91868.84
2023-05-09T04:41:03.353Z,91864.00
2023-05-09T04:43:31.185Z,91868.44
2023-05-09T04:45:57.955Z,91871.94
2023-05-09T04:48:24.624Z,91867.59
2023-05-09T04:50:51.279Z,91875.72
2023-05-09T04:53:17.940Z,91873.19
2023-05-09T04:55:44.586Z,91875.41
2023-05-09T04:58:11.359Z,91875.13
2023-05-09T05:00:38.075Z,91863.75
2023-05-09T05:03:04.883Z,91871.78
2023-05-09T05:05:33.648Z,91872.97
2023-05-09T05:08:01.932Z,91881.31
2023-05-09T05:10:28.727Z,91876.44
2023-05-09T05:12:55.613Z,91871.28
2023-05-09T05:15:22.313Z,91870.88
2023-05-09T05:17:49.186Z,91867.28
2023-05-09T05:20:16.010Z,91871.78
2023-05-09T05:22:42.740Z,91876.91
2023-05-09T05:25:09.802Z,91871.53
2023-05-09T05:27:36.459Z,91876.19
2023-05-09T05:30:03.364Z,91874.63
2023-05-09T05:32:30.004Z,91879.16
2023-05-09T05:34:57.361Z,91882.16
2023-05-09T05:37:24.141Z,91880.50
2023-05-09T05:39:51.612Z,91873.78
2023-05-09T05:42:18.419Z,91876.81
2023-05-09T05:44:45.143Z,91875.22
2023-05-09T05:47:11.792Z,91879.41
2023-05-09T05:49:38.923Z,91876.72
2023-05-09T05:52:05.892Z,91877.19
2023-05-09T05:54:32.727Z,91880.13
2023-05-09T05:56:59.406Z,91880.38
2023-05-09T05:59:26.143Z,91880.84
2023-05-09T06:01:52.909Z,91879.16
2023-05-09T06:04:19.691Z,91884.31
2023-05-09T06:06:46.749Z,91882.25
2023-05-09T06:09:13.477Z,91883.00
2023-05-09T06:11:40.192Z,91885.63
2023-05-09T06:14:06.777Z,91881.63
2023-05-09T06:16:33.510Z,91878.03
2023-05-09T06:19:00.504Z,91883.53
2023-05-09T06:21:27.173Z,91891.72
2023-05-09T06:26:23.311Z,91891.94
2023-05-09T06:28:49.964Z,91894.41
2023-05-09T06:31:16.761Z,91889.16
2023-05-09T06:33:43.477Z,91885.38
2023-05-09T06:36:10.134Z,91889.09
2023-05-09T06:38:36.806Z,91888.78
2023-05-09T06:41:03.422Z,91899.59
2023-05-09T06:43:30.125Z,91901.22
2023-05-09T06:45:56.896Z,91896.28
2023-05-09T06:48:26.920Z,91893.69
2023-05-09T06:50:53.843Z,91889.94
2023-05-09T06:53:20.534Z,91889.09
2023-05-09T06:55:47.188Z,91891.09
2023-05-09T06:58:13.858Z,91879.41
2023-05-09T07:00:40.803Z,91885.75
2023-05-09T07:03:07.767Z,91883.00
2023-05-09T07:05:34.664Z,91880.69
2023-05-09T07:08:01.480Z,91880.22
2023-05-09T07:10:28.241Z,91876.69
2023-05-09T07:12:54.966Z,91881.19
2023-05-09T07:15:36.775Z,91888.00
2023-05-09T07:18:06.979Z,91886.09
2023-05-09T07:20:33.666Z,91890.28
2023-05-09T07:23:00.446Z,91892.63
2023-05-09T07:25:27.119Z,91880.63
2023-05-09T07:27:53.866Z,91885.31
2023-05-09T07:30:20.531Z,91887.72
2023-05-09T07:32:47.317Z,91886.94
2023-05-09T07:35:14.062Z,91890.28
2023-05-09T07:37:41.061Z,91885.88
2023-05-09T07:40:08.298Z,91889.44
2023-05-09T07:42:35.019Z,91888.91
2023-05-09T07:45:01.822Z,91892.97
2023-05-09T07:47:28.565Z,91888.50
2023-05-09T07:49:55.433Z,91883.31
2023-05-09T07:52:22.093Z,91882.84
2023-05-09T07:54:48.874Z,91880.06
2023-05-09T07:57:16.478Z,91882.44
2023-05-09T07:59:43.139Z,91886.13
2023-05-09T08:02:09.814Z,91888.44
2023-05-09T08:04:38.300Z,91894.94
2023-05-09T08:07:05.231Z,91893.88
2023-05-09T08:09:32.036Z,91894.47
2023-05-09T08:11:58.740Z,91893.16
2023-05-09T08:14:25.464Z,91890.47
2023-05-09T08:16:52.277Z,91893.44
2023-05-09T08:19:21.047Z,91890.47
2023-05-09T08:21:47.697Z,91892.50
2023-05-09T08:24:14.298Z,91894.19
2023-05-09T08:26:40.926Z,91890.69
2023-05-09T08:29:07.583Z,91891.03
2023-05-09T08:31:34.305Z,91894.09
2023-05-09T08:34:01.165Z,91898.31
2023-05-09T08:36:27.827Z,91891.16
2023-05-09T08:38:54.487Z,91882.41
2023-05-09T08:41:21.924Z,91890.41
2023-05-09T08:43:48.557Z,91889.47
2023-05-09T08:46:15.251Z,91886.22
2023-05-09T08:48:41.894Z,91888.41
2023-05-09T08:51:08.756Z,91891.50
2023-05-09T08:53:35.406Z,91885.28
2023-05-09T08:56:03.522Z,91882.31
2023-05-09T08:58:31.342Z,91878.75
2023-05-09T09:00:57.989Z,91886.34
2023-05-09T09:03:27.345Z,91879.63
2023-05-09T09:05:54.883Z,91882.59
2023-05-09T09:08:22.453Z,91885.84
2023-05-09T09:10:49.542Z,91890.03
2023-05-09T09:13:17.546Z,91885.44
2023-05-09T09:15:45.463Z,91884.47
2023-05-09T09:18:14.959Z,91882.63
2023-05-09T09:20:46.324Z,91888.19
2023-05-09T09:23:12.949Z,91891.94
2023-05-09T09:25:39.611Z,91888.22
2023-05-09T09:28:06.408Z,91884.38
2023-05-09T09:30:33.201Z,91887.66
2023-05-09T09:33:00.610Z,91891.06
2023-05-09T09:35:27.548Z,91886.88
2023-05-09T09:37:59.903Z,91894.16
2023-05-09T09:40:26.956Z,91886.16
2023-05-09T09:42:53.687Z,91891.28
2023-05-09T09:45:20.476Z,91891.31
2023-05-09T09:47:48.114Z,91889.72
2023-05-09T09:50:15.713Z,91886.09
2023-05-09T09:52:49.435Z,91883.63
2023-05-09T09:55:16.450Z,91880.28
2023-05-09T09:57:45.731Z,91888.00
2023-05-09T10:00:16.067Z,91887.06
2023-05-09T10:02:56.988Z,91888.44
2023-05-09T10:05:28.625Z,91891.28
2023-05-09T10:07:56.700Z,91884.31
2023-05-09T10:10:23.368Z,91892.44
2023-05-09T10:12:50.649Z,91889.97
2023-05-09T10:15:18.886Z,91890.28
2023-05-09T10:17:46.009Z,91880.00
2023-05-09T10:20:12.861Z,91887.19
2023-05-09T10:22:39.961Z,91893.53
2023-05-09T10:25:15.019Z,91893.94
2023-05-09T10:27:42.190Z,91882.34
2023-05-09T10:30:12.665Z,91868.91
2023-05-09T10:33:01.309Z,91877.47
2023-05-09T10:35:33.232Z,91875.63
2023-05-09T10:38:00.080Z,91876.19
2023-05-09T10:40:26.968Z,91877.44
2023-05-09T10:42:53.618Z,91881.50
2023-05-09T10:45:21.782Z,91879.47
2023-05-09T10:47:49.878Z,91876.75
2023-05-09T10:50:16.598Z,91885.41
2023-05-09T10:53:08.905Z,91890.63
2023-05-09T10:55:56.545Z,91886.44
2023-05-09T10:58:29.870Z,91890.16
2023-05-09T11:00:57.642Z,91893.25
2023-05-09T11:03:25.196Z,91893.16
2023-05-09T11:05:58.427Z,91887.59
2023-05-09T11:08:31.225Z,91885.53
2023-05-09T11:11:00.651Z,91889.44
2023-05-09T11:13:30.804Z,91883.16
2023-05-09T11:16:00.711Z,91884.69
2023-05-09T11:18:30.771Z,91884.53
2023-05-09T11:20:57.424Z,91892.66
2023-05-09T11:23:28.066Z,91887.63
2023-05-09T11:25:54.892Z,91883.84
2023-05-09T11:28:28.503Z,91882.59
2023-05-09T11:31:08.396Z,91879.97
2023-05-09T11:33:36.265Z,91875.00
2023-05-09T11:36:29.375Z,91885.81
2023-05-09T11:39:03.101Z,91887.69
2023-05-09T11:41:30.056Z,91880.06
2023-05-09T11:43:57.217Z,91881.72
2023-05-09T11:46:24.071Z,91884.19
2023-05-09T11:48:50.769Z,91892.94
2023-05-09T11:51:18.398Z,91882.38
2023-05-09T11:53:54.379Z,91892.44
2023-05-09T11:56:23.145Z,91887.56
2023-05-09T11:58:52.872Z,91885.63
2023-05-09T12:01:19.799Z,91888.75
2023-05-09T12:03:46.623Z,91881.69
2023-05-09T12:06:17.762Z,91880.19
2023-05-09T12:08:45.496Z,91889.69
2023-05-09T12:11:12.296Z,91888.75
2023-05-09T12:13:51.942Z,91890.19
2023-05-09T12:16:19.163Z,91888.28
2023-05-09T12:18:47.655Z,91878.03
2023-05-09T12:21:14.444Z,91887.56
2023-05-09T12:23:41.052Z,91874.88
2023-05-09T12:26:07.642Z,91876.44
2023-05-09T12:28:34.331Z,91878.69
2023-05-09T12:31:01.376Z,91876.19
2023-05-09T12:33:28.011Z,91873.00
2023-05-09T12:36:21.025Z,91864.00
2023-05-09T12:38:56.685Z,91864.72
2023-05-09T12:41:36.915Z,91869.97
2023-05-09T12:44:06.181Z,91867.50
2023-05-09T12:46:32.901Z,91870.88
2023-05-09T12:48:59.638Z,91862.09
2023-05-09T12:51:26.413Z,91868.63
2023-05-09T12:53:53.170Z,91864.06
2023-05-09T12:56:20.551Z,91855.41
2023-05-09T12:58:54.216Z,91850.50
2023-05-09T13:01:22.809Z,91854.38
2023-05-09T13:03:53.330Z,91851.69
2023-05-09T13:06:21.266Z,91853.13
2023-05-09T13:08:57.763Z,91847.97
2023-05-09T13:11:24.651Z,91853.38
2023-05-09T13:13:51.629Z,91846.31
2023-05-09T13:16:18.440Z,91842.72
2023-05-09T13:18:45.364Z,91855.69
2023-05-09T13:21:12.049Z,91852.88
2023-05-09T13:23:38.826Z,91856.16
2023-05-09T13:26:05.532Z,91842.25
2023-05-09T13:28:32.171Z,91843.03
2023-05-09T13:30:59.331Z,91853.47
2023-05-09T13:33:26.842Z,91841.66
2023-05-09T13:35:53.862Z,91836.25
2023-05-09T13:38:20.605Z,91837.97
2023-05-09T13:40:47.234Z,91838.06
2023-05-09T13:43:13.854Z,91840.34
2023-05-09T13:45:40.659Z,91838.28
2023-05-09T13:48:07.322Z,91837.44
2023-05-09T13:50:34.333Z,91837.69
2023-05-09T13:53:01.118Z,91840.88
2023-05-09T13:55:27.994Z,91841.16
2023-05-09T13:57:55.004Z,91843.31
2023-05-09T14:00:22.190Z,91837.25
2023-05-09T14:02:49.047Z,91835.56
2023-05-09T14:05:16.924Z,91835.69
2023-05-09T14:07:43.920Z,91836.75
2023-05-09T14:10:16.293Z,91829.88
2023-05-09T14:12:44.581Z,91830.66
2023-05-09T14:15:11.401Z,91831.47
2023-05-09T14:17:38.348Z,91841.94
2023-05-09T14:20:06.470Z,91834.72
2023-05-09T14:22:33.184Z,91834.72
2023-05-09T14:24:59.986Z,91828.06
2023-05-09T14:27:26.641Z,91826.00
2023-05-09T14:29:53.343Z,91823.69
2023-05-09T14:32:19.966Z,91825.41
2023-05-09T14:34:49.509Z,91837.22
2023-05-09T14:37:16.280Z,91830.19
2023-05-09T14:39:43.501Z,91823.72
2023-05-09T14:42:11.606Z,91824.81
2023-05-09T14:44:38.697Z,91824.22
2023-05-09T14:47:06.057Z,91822.72
2023-05-09T14:49:33.042Z,91819.78
2023-05-09T14:51:59.921Z,91815.84
2023-05-09T14:54:26.693Z,91818.59
2023-05-09T14:56:53.503Z,91815.13
2023-05-09T14:59:20.425Z,91810.44
2023-05-09T15:01:47.188Z,91816.25
2023-05-09T15:04:13.780Z,91816.44
2023-05-09T15:06:41.093Z,91816.56
2023-05-09T15:09:08.661Z,91818.13
2023-05-09T15:11:46.987Z,91815.97
2023-05-09T15:14:15.278Z,91813.13
2023-05-09T15:16:42.194Z,91822.31
2023-05-09T15:19:09.007Z,91811.91
2023-05-09T15:21:36.020Z,91817.75
2023-05-09T15:24:03.579Z,91813.13
2023-05-09T15:26:30.310Z,91808.19
2023-05-09T15:28:57.036Z,91809.28
2023-05-09T15:31:24.903Z,91812.31
2023-05-09T15:33:51.931Z,91814.06
2023-05-09T15:36:18.587Z,91810.53
2023-05-09T15:38:49.197Z,91809.03
2023-05-09T15:41:16.377Z,91808.63
2023-05-09T15:43:43.120Z,91811.78
2023-05-09T15:46:09.788Z,91811.78
2023-05-09T15:48:36.783Z,91810.34
2023-05-09T15:51:04.207Z,91811.47
2023-05-09T15:53:30.926Z,91809.63
2023-05-09T15:55:57.725Z,91814.41
2023-05-09T15:58:24.365Z,91817.53
2023-05-09T16:00:51.058Z,91812.88
2023-05-09T16:03:18.355Z,91819.63
2023-05-09T16:05:45.387Z,91811.09
2023-05-09T16:08:12.497Z,91818.19
2023-05-09T16:10:39.266Z,91815.63
2023-05-09T16:13:06.069Z,91819.03
2023-05-09T16:15:32.927Z,91820.50
2023-05-09T16:17:59.696Z,91823.38
2023-05-09T16:20:26.305Z,91829.59
2023-05-09T16:22:52.963Z,91822.50
2023-05-09T16:25:19.761Z,91827.38
2023-05-09T16:27:46.490Z,91828.06
2023-05-09T16:30:13.810Z,91822.22
2023-05-09T16:32:40.750Z,91825.72
2023-05-09T16:35:08.017Z,91824.94
2023-05-09T16:37:35.703Z,91824.00
2023-05-09T16:40:02.944Z,91828.44
2023-05-09T16:42:29.788Z,91833.50
2023-05-09T16:44:57.313Z,91825.72
2023-05-09T16:47:24.109Z,91836.63
2023-05-09T16:49:51.018Z,91834.69
2023-05-09T16:52:17.616Z,91830.50
2023-05-09T16:54:44.312Z,91832.72
2023-05-09T16:57:10.963Z,91833.53
2023-05-09T16:59:37.792Z,91830.09
2023-05-09T17:02:04.664Z,91834.69
2023-05-09T17:04:31.504Z,91827.09
2023-05-09T17:06:58.383Z,91834.69
2023-05-09T17:09:25.160Z,91837.00
2023-05-09T17:11:52.050Z,91833.69
2023-05-09T17:14:18.713Z,91832.25
2023-05-09T17:16:45.573Z,91833.22
2023-05-09T17:19:12.326Z,91834.78
2023-05-09T17:21:41.557Z,91832.94
2023-05-09T17:24:09.307Z,91832.53
2023-05-09T17:26:36.064Z,91835.84
2023-05-09T17:29:03.816Z,91828.28
2023-05-09T17:31:31.281Z,91828.44
2023-05-09T17:33:58.035Z,91828.66
2023-05-09T17:36:25.682Z,91839.53
2023-05-09T17:38:52.346Z,91831.75
2023-05-09T17:41:18.953Z,91836.53
2023-05-09T17:43:45.662Z,91840.88
2023-05-09T17:46:12.356Z,91838.75
2023-05-09T17:48:39.174Z,91840.50
2023-05-09T17:51:05.914Z,91842.31
2023-05-09T17:53:32.577Z,91839.09
2023-05-09T17:55:59.353Z,91842.38
2023-05-09T17:58:27.671Z,91842.56
2023-05-09T18:00:55.215Z,91845.94
2023-05-09T18:03:21.987Z,91842.69
2023-05-09T18:05:48.766Z,91849.31
2023-05-09T18:08:15.359Z,91844.69
2023-05-09T18:10:42.038Z,91849.81
2023-05-09T18:13:08.749Z,91843.31
2023-05-09T18:15:38.111Z,91855.22
2023-05-09T18:18:06.309Z,91859.69
2023-05-09T18:20:33.411Z,91858.97
2023-05-09T18:23:00.121Z,91861.72
2023-05-09T18:25:26.781Z,91862.47
2023-05-09T18:27:53.516Z,91857.16
2023-05-09T18:30:21.908Z,91855.00
2023-05-09T18:32:48.740Z,91852.09
2023-05-09T18:35:16.124Z,91859.84
2023-05-09T18:37:42.908Z,91858.69
2023-05-09T18:40:14.742Z,91867.50
2023-05-09T18:42:42.057Z,91861.53
2023-05-09T18:45:10.083Z,91863.41
2023-05-09T18:47:37.488Z,91859.59
2023-05-09T18:50:05.286Z,91853.16
2023-05-09T18:52:32.395Z,91865.31
2023-05-09T18:54:59.109Z,91855.69
2023-05-09T18:57:26.108Z,91863.94
2023-05-09T18:59:53.009Z,91869.69
2023-05-09T19:02:20.621Z,91865.16
2023-05-09T19:04:48.172Z,91860.19
2023-05-09T19:07:15.173Z,91867.19
2023-05-09T19:09:42.090Z,91863.41
2023-05-09T19:12:09.794Z,91863.00
2023-05-09T19:14:37.843Z,91857.03
2023-05-09T19:17:07.847Z,91865.81
2023-05-09T19:19:34.645Z,91866.38
2023-05-09T19:22:01.818Z,91874.25
2023-05-09T19:24:28.562Z,91867.16
2023-05-09T19:26:55.331Z,91866.59
2023-05-09T19:29:21.966Z,91877.47
2023-05-09T19:31:48.640Z,91872.78
2023-05-09T19:34:15.337Z,91873.09
2023-05-09T19:36:42.002Z,91875.06
2023-05-09T19:39:09.152Z,91868.03
2023-05-09T19:41:35.959Z,91873.50
2023-05-09T19:44:02.772Z,91869.63
2023-05-09T19:46:29.479Z,91871.78
2023-05-09T19:48:56.198Z,91873.84
2023-05-09T19:51:22.791Z,91869.47
2023-05-09T19:53:49.469Z,91865.97
2023-05-09T19:56:16.412Z,91869.03
2023-05-09T19:58:43.349Z,91865.47
2023-05-09T20:01:10.197Z,91866.41
2023-05-09T20:03:38.822Z,91866.16
2023-05-09T20:06:05.848Z,91864.91
2023-05-09T20:08:32.629Z,91868.63
2023-05-09T20:11:00.215Z,91857.47
2023-05-09T20:13:27.556Z,91856.50
2023-05-09T20:15:54.437Z,91854.47
2023-05-09T20:18:21.205Z,91855.19
2023-05-09T20:20:48.341Z,91863.31
2023-05-09T20:23:15.061Z,91851.72
2023-05-09T20:25:41.952Z,91859.13
2023-05-09T20:28:09.595Z,91852.59
2023-05-09T20:30:36.186Z,91848.53
2023-05-09T20:33:02.999Z,91851.44
2023-05-09T20:35:29.709Z,91848.78
2023-05-09T20:37:56.344Z,91854.59
2023-05-09T20:40:23.448Z,91849.97
2023-05-09T20:42:50.223Z,91847.44
2023-05-09T20:45:17.158Z,91857.56
2023-05-09T20:47:43.790Z,91848.25
2023-05-09T20:50:10.778Z,91859.13
2023-05-09T20:52:37.453Z,91848.66
2023-05-09T20:55:04.286Z,91841.78
2023-05-09T20:57:30.997Z,91849.41
2023-05-09T20:59:57.705Z,91847.81
2023-05-09T21:02:24.373Z,91844.84
2023-05-09T21:04:51.092Z,91846.56
2023-05-09T21:07:19.467Z,91843.63
2023-05-09T21:09:49.842Z,91839.88
2023-05-09T21:12:16.914Z,91832.94
2023-05-09T21:14:44.839Z,91829.53
2023-05-09T21:17:11.863Z,91830.13
2023-05-09T21:19:38.725Z,91842.06
2023-05-09T21:22:05.491Z,91845.38
2023-05-09T21:24:32.240Z,91840.44
2023-05-09T21:26:58.925Z,91836.00
2023-05-09T21:29:25.645Z,91840.06
2023-05-09T21:31:52.309Z,91841.41
2023-05-09T21:34:19.003Z,91828.41
2023-05-09T21:36:45.698Z,91827.66
2023-05-09T21:39:12.471Z,91828.00
2023-05-09T21:41:39.744Z,91832.31
2023-05-09T21:44:07.438Z,91831.97
2023-05-09T21:46:34.423Z,91828.56
2023-05-09T21:49:01.534Z,91829.72
2023-05-09T21:51:28.699Z,91827.28
2023-05-09T21:53:55.518Z,91825.63
2023-05-09T21:56:22.498Z,91824.38
2023-05-09T21:58:49.222Z,91828.13
2023-05-09T22:01:16.586Z,91822.66
2023-05-09T22:03:43.453Z,91814.50
2023-05-09T22:06:10.165Z,91819.25
2023-05-09T22:08:37.084Z,91819.91
2023-05-09T22:11:03.725Z,91823.47
2023-05-09T22:13:30.768Z,91816.81
2023-05-09T22:15:57.496Z,91821.34
2023-05-09T22:18:24.190Z,91819.25
2023-05-09T22:20:50.874Z,91807.06
2023-05-09T22:23:17.775Z,91817.59
2023-05-09T22:25:47.026Z,91812.75
2023-05-09T22:28:13.616Z,91814.31
2023-05-09T22:30:40.372Z,91825.75
2023-05-09T22:33:07.040Z,91816.88
2023-05-09T22:35:33.834Z,91805.31
2023-05-09T22:38:00.464Z,91817.03
2023-05-09T22:40:27.112Z,91812.66
2023-05-09T22:42:53.834Z,91820.63
2023-05-09T22:45:20.895Z,91812.16
2023-05-09T22:47:47.573Z,91807.41
2023-05-09T22:50:14.521Z,91804.72
2023-05-09T22:52:41.592Z,91797.34
2023-05-09T22:55:08.725Z,91806.22
2023-05-09T22:57:36.057Z,91805.31
2023-05-09T23:00:02.910Z,91801.69
2023-05-09T23:02:29.677Z,91800.63
2023-05-09T23:04:56.462Z,91798.16
2023-05-09T23:07:23.147Z,91798.16
2023-05-09T23:09:49.997Z,91799.59
2023-05-09T23:12:16.643Z,91797.63
2023-05-09T23:14:43.493Z,91797.91
2023-05-09T23:17:10.237Z,91800.69
2023-05-09T23:19:37.288Z,91804.34
2023-05-09T23:22:04.607Z,91799.78
2023-05-09T23:24:31.257Z,91796.13
2023-05-09T23:26:58.041Z,91802.22
2023-05-09T23:29:25.269Z,91803.06
2023-05-09T23:31:51.960Z,91792.09
2023-05-09T23:34:18.623Z,91800.22
2023-05-09T23:36:45.354Z,91801.09
2023-05-09T23:39:12.189Z,91796.66
2023-05-09T23:41:38.888Z,91798.19
2023-05-09T23:44:07.690Z,91788.66
2023-05-09T23:46:34.577Z,91792.97
2023-05-09T23:49:01.418Z,91785.22
2023-05-09T23:51:28.354Z,91788.56
2023-05-09T23:53:54.983Z,91789.81
2023-05-09T23:56:21.580Z,91783.81
2023-05-09T23:58:48.274Z,91774.81
